createdAt,value
2023-04-15T00:05:37.921Z,4.5
2023-04-15T00:07:40.007Z,4.5
2023-04-15T00:09:42.031Z,4.6
2023-04-15T00:10:44.624Z,4.6
2023-04-15T00:12:46.655Z,4.6
2023-04-15T00:29:06.162Z,4.2
2023-04-15T00:37:17.483Z,4.1
2023-04-15T00:39:19.518Z,4.1
2023-04-15T00:41:21.574Z,4.1
2023-04-15T00:43:23.609Z,4
2023-04-15T00:55:38.944Z,3.9
2023-04-15T00:57:40.978Z,3.9
2023-04-15T00:59:42.997Z,3.7
2023-04-15T01:01:48.234Z,3.7
2023-04-15T01:03:50.285Z,3.8
2023-04-15T01:05:52.237Z,3.8
2023-04-15T01:12:19.286Z,3.8
2023-04-15T01:26:36.640Z,3.7
2023-04-15T01:28:41.818Z,3.6
2023-04-15T01:30:43.863Z,3.6
2023-04-15T01:36:49.940Z,3.5
2023-04-15T01:40:53.966Z,3.5
2023-04-15T01:42:59.158Z,3.4
2023-04-15T01:45:01.214Z,3.4
2023-04-15T01:47:03.223Z,3.5
2023-04-15T01:49:05.239Z,3.4
2023-04-15T01:51:07.248Z,3.3
2023-04-15T01:57:16.471Z,3.3
2023-04-15T01:59:18.495Z,3.2
2023-04-15T02:01:20.551Z,3.2
2023-04-15T02:02:23.168Z,3.2
2023-04-15T02:10:34.277Z,3.2
2023-04-15T02:22:46.335Z,3.1
2023-04-15T02:24:51.527Z,2.9
2023-04-15T02:26:53.497Z,2.9
2023-04-15T02:28:55.507Z,2.9
2023-04-15T02:30:57.518Z,3
2023-04-15T02:32:59.570Z,2.9
2023-04-15T02:35:01.593Z,3
2023-04-15T02:37:03.530Z,3
2023-04-15T02:39:08.688Z,2.9
2023-04-15T02:41:10.699Z,2.9
2023-04-15T02:43:12.696Z,2.9
2023-04-15T02:45:14.741Z,2.9
2023-04-15T02:49:18.730Z,2.8
2023-04-15T02:51:20.752Z,2.8
2023-04-15T02:53:25.913Z,2.8
2023-04-15T02:55:27.900Z,2.8
2023-04-15T02:57:29.897Z,2.8
2023-04-15T02:58:32.499Z,2.8
2023-04-15T03:00:34.474Z,2.8
2023-04-15T03:02:36.627Z,2.8
2023-04-15T03:06:43.635Z,2.8
2023-04-15T03:16:53.634Z,2.8
2023-04-15T03:39:21.981Z,2.6
2023-04-15T03:43:25.953Z,2.6
2023-04-15T03:45:27.964Z,2.5
2023-04-15T03:51:37.093Z,2.6
2023-04-15T03:53:39.111Z,2.6
2023-04-15T03:54:41.680Z,2.5
2023-04-15T04:06:56.823Z,2.4
2023-04-15T04:08:58.939Z,2.4
2023-04-15T04:11:00.797Z,2.4
2023-04-15T04:13:02.830Z,2.5
2023-04-15T04:25:17.931Z,2.5
2023-04-15T04:29:21.900Z,2.5
2023-04-15T04:31:27.064Z,2.6
2023-04-15T04:35:31.042Z,2.6
2023-04-15T04:37:33.031Z,2.6
2023-04-15T04:39:35.001Z,2.6
2023-04-15T04:41:36.984Z,2.6
2023-04-15T04:43:39.000Z,2.6
2023-04-15T04:45:44.134Z,2.6
2023-04-15T04:47:46.122Z,2.6
2023-04-15T04:49:48.118Z,2.5
2023-04-15T04:52:05.104Z,2.5
2023-04-15T04:54:07.116Z,2.5
2023-04-15T04:56:09.124Z,2.5
2023-04-15T04:58:14.247Z,2.6
2023-04-15T05:00:16.251Z,2.6
2023-04-15T05:02:18.315Z,2.7
2023-04-15T05:04:20.193Z,2.7
2023-04-15T05:06:22.206Z,2.8
2023-04-15T05:08:24.193Z,2.9
2023-04-15T05:10:26.205Z,3
2023-04-15T05:12:31.356Z,3.1
2023-04-15T05:14:33.398Z,3.1
2023-04-15T05:16:35.317Z,3.1
2023-04-15T05:18:37.325Z,3.1
2023-04-15T05:20:39.317Z,3.2
2023-04-15T05:22:41.307Z,3.3
2023-04-15T05:26:48.444Z,3.4
2023-04-15T05:46:13.676Z,6.9
2023-04-15T05:48:15.628Z,6.9
2023-04-15T05:50:17.838Z,7
2023-04-15T05:54:24.825Z,8.2
2023-04-15T05:56:26.848Z,8.5
2023-04-15T05:58:28.866Z,8.8
2023-04-15T06:00:30.886Z,9.1
2023-04-15T06:02:33.060Z,9.7
2023-04-15T06:06:36.993Z,10.6
2023-04-15T06:08:42.182Z,11.2
2023-04-15T06:10:44.276Z,11.5
2023-04-15T06:14:48.226Z,11.3
2023-04-15T06:16:50.172Z,11
2023-04-15T06:18:52.134Z,10.4
2023-04-15T06:20:54.076Z,9.5
2023-04-15T06:22:59.100Z,8.9
2023-04-15T06:25:01.059Z,9
2023-04-15T06:27:03.019Z,8.9
2023-04-15T06:31:06.992Z,8.9
2023-04-15T06:33:08.951Z,9.4
2023-04-15T06:35:10.896Z,9.6
2023-04-15T06:39:17.932Z,10.2
2023-04-15T06:41:19.868Z,10
2023-04-15T06:42:22.379Z,9.7
2023-04-15T06:48:28.329Z,9
2023-04-15T07:02:45.391Z,8
2023-04-15T07:06:52.278Z,7.8
2023-04-15T07:08:54.263Z,7.9
2023-04-15T07:10:56.262Z,7.9
2023-04-15T07:12:58.251Z,7.8
2023-04-15T07:15:00.226Z,8.1
2023-04-15T07:17:02.260Z,8.3
2023-04-15T07:21:09.240Z,8.8
2023-04-15T07:23:11.234Z,9.2
2023-04-15T07:25:13.259Z,9.3
2023-04-15T07:27:15.198Z,9.6
2023-04-15T07:31:19.209Z,10.5
2023-04-15T07:40:32.698Z,9.5
2023-04-15T07:50:45.719Z,9.6
2023-04-15T07:52:47.721Z,9.5
2023-04-15T07:54:49.718Z,9.5
2023-04-15T07:56:51.702Z,9.9
2023-04-15T07:58:53.695Z,9.8
2023-04-15T08:00:58.742Z,10.4
2023-04-15T08:03:00.981Z,10.8
2023-04-15T08:07:04.748Z,10.6
2023-04-15T08:09:06.723Z,10.5
2023-04-15T08:11:08.725Z,10.3
2023-04-15T08:13:10.721Z,10.4
2023-04-15T08:15:15.781Z,10.5
2023-04-15T08:25:25.850Z,10.7
2023-04-15T08:27:27.788Z,10.3
2023-04-15T08:29:32.846Z,10.2
2023-04-15T08:31:34.878Z,10.3
2023-04-15T08:33:36.847Z,10.3
2023-04-15T08:35:59.738Z,10.3
2023-04-15T08:44:10.789Z,10.6
2023-04-15T08:50:16.800Z,10.6
2023-04-15T08:52:18.792Z,10.7
2023-04-15T08:54:20.797Z,10.9
2023-04-15T08:56:25.876Z,10.7
2023-04-15T08:58:27.878Z,10.5
2023-04-15T09:00:30.432Z,10.8
2023-04-15T09:02:31.899Z,10.7
2023-04-15T09:04:33.862Z,11.1
2023-04-15T09:06:35.859Z,11.8
2023-04-15T09:08:37.844Z,11.8
2023-04-15T09:10:42.921Z,11.7
2023-04-15T09:12:44.919Z,11.3
2023-04-15T09:14:46.963Z,11.1
2023-04-15T09:16:50.426Z,11.4
2023-04-15T09:18:50.912Z,11.3
2023-04-15T09:20:52.921Z,11.8
2023-04-15T09:24:59.957Z,11.8
2023-04-15T09:27:01.971Z,11.5
2023-04-15T09:29:03.999Z,11.3
2023-04-15T09:30:06.499Z,11.4
2023-04-15T09:32:08.485Z,11.3
2023-04-15T09:38:17.540Z,12.5
2023-04-15T09:40:20.052Z,12.5
2023-04-15T09:42:21.540Z,12.4
2023-04-15T09:44:23.530Z,12
2023-04-15T09:46:25.563Z,11.7
2023-04-15T09:48:27.540Z,11.6
2023-04-15T09:52:34.591Z,11.7
2023-04-15T10:00:42.596Z,12.7
2023-04-15T10:10:55.640Z,12.3
2023-04-15T10:12:57.639Z,12.6
2023-04-15T10:14:59.659Z,12.7
2023-04-15T10:17:01.662Z,12.6
2023-04-15T10:19:03.653Z,12.6
2023-04-15T10:21:08.708Z,13
2023-04-15T10:25:12.739Z,12.5
2023-04-15T10:26:15.251Z,12.4
2023-04-15T10:28:17.269Z,12.4
2023-04-15T10:30:19.242Z,12.3
2023-04-15T10:32:21.298Z,12.6
2023-04-15T10:34:26.284Z,12.8
2023-04-15T10:56:51.324Z,11.9
2023-04-15T10:58:53.335Z,11.9
2023-04-15T11:21:21.449Z,13.2
2023-04-15T11:22:25.503Z,13.3
2023-04-15T11:24:27.453Z,13.2
2023-04-15T11:26:29.463Z,13
2023-04-15T11:28:31.460Z,13.2
2023-04-15T11:30:36.651Z,13.4
2023-04-15T11:32:38.573Z,13.3
2023-04-15T11:34:40.516Z,13.9
2023-04-15T11:36:42.502Z,14.1
2023-04-15T11:38:44.517Z,13.9
2023-04-15T11:40:47.360Z,13.1
2023-04-15T11:42:50.165Z,12.6
2023-04-15T11:44:53.591Z,13.2
2023-04-15T11:46:55.583Z,13.2
2023-04-15T11:48:57.574Z,12.6
2023-04-15T11:50:59.664Z,12.7
2023-04-15T11:55:03.621Z,12.5
2023-04-15T11:57:05.610Z,13.3
2023-04-15T11:59:10.647Z,14.7
2023-04-15T12:01:12.676Z,14.8
2023-04-15T12:03:14.882Z,13.9
2023-04-15T12:05:16.750Z,13.6
2023-04-15T12:07:18.663Z,14.1
2023-04-15T12:09:20.650Z,14.5
2023-04-15T12:11:22.612Z,15
2023-04-15T12:13:27.698Z,14.1
2023-04-15T12:15:29.696Z,13.8
2023-04-15T12:19:54.200Z,12.8
2023-04-15T12:21:56.973Z,12.8
2023-04-15T12:26:03.262Z,13.3
2023-04-15T12:28:05.234Z,13.6
2023-04-15T12:42:22.659Z,13.6
2023-04-15T12:44:24.652Z,14
2023-04-15T12:46:26.653Z,13.3
2023-04-15T12:56:39.676Z,12.5
2023-04-15T12:58:41.654Z,12.7
2023-04-15T13:00:43.649Z,13
2023-04-15T13:02:45.782Z,12.9
2023-04-15T13:04:47.665Z,12.5
2023-04-15T13:06:49.632Z,12.5
2023-04-15T13:08:58.498Z,12.7
2023-04-15T13:14:01.225Z,12.3
2023-04-15T13:18:05.221Z,12.1
2023-04-15T13:20:07.223Z,12.1
2023-04-15T13:24:14.257Z,12.2
2023-04-15T13:26:16.258Z,12.3
2023-04-15T13:28:18.257Z,12.2
2023-04-15T13:30:20.240Z,12.1
2023-04-15T13:32:22.305Z,11.8
2023-04-15T13:34:24.241Z,12
2023-04-15T13:36:29.297Z,11.6
2023-04-15T13:38:31.271Z,11.5
2023-04-15T13:40:34.726Z,11.4
2023-04-15T13:44:37.305Z,11.3
2023-04-15T13:48:41.304Z,11.2
2023-04-15T13:50:46.336Z,11
2023-04-15T13:52:48.359Z,11
2023-04-15T13:55:08.810Z,10.8
2023-04-15T13:56:52.367Z,10.8
2023-04-15T14:00:56.429Z,10.8
2023-04-15T14:10:09.982Z,10.9
2023-04-15T14:12:11.980Z,10.7
2023-04-15T14:14:15.891Z,10.5
2023-04-15T14:16:16.061Z,10.5
2023-04-15T14:18:21.044Z,10.6
2023-04-15T14:20:25.331Z,10.6
2023-04-15T14:24:27.074Z,10.6
2023-04-15T14:26:29.061Z,10.7
2023-04-15T14:28:31.075Z,10.7
2023-04-15T14:50:59.231Z,10.1
2023-04-15T15:06:18.855Z,10.2
2023-04-15T15:08:20.849Z,10.2
2023-04-15T15:10:46.102Z,10.2
2023-04-15T15:14:29.913Z,10
2023-04-15T15:16:25.996Z,10.1
2023-04-15T15:18:27.991Z,10.3
2023-04-15T15:20:30.003Z,10.3
2023-04-15T15:22:32.008Z,10.2
2023-04-15T15:24:34.026Z,10.1
2023-04-15T15:26:35.999Z,9.9
2023-04-15T15:30:43.064Z,9.8
2023-04-15T15:38:51.062Z,9.8
2023-04-15T15:47:02.190Z,9.9
2023-04-15T15:49:04.411Z,10
2023-04-15T16:24:02.205Z,9.3
2023-04-15T16:26:04.195Z,9.3
2023-04-15T16:28:22.632Z,9.3
2023-04-15T16:30:08.190Z,9.3
2023-04-15T16:32:10.221Z,9.3
2023-04-15T16:34:12.189Z,9.3
2023-04-15T16:36:14.204Z,9.2
2023-04-15T16:38:19.233Z,9
2023-04-15T16:40:21.226Z,9
2023-04-15T16:42:23.231Z,8.9
2023-04-15T16:44:25.214Z,8.9
2023-04-15T16:56:40.251Z,8.7
2023-04-15T16:58:01.038Z,8.7
2023-04-15T17:05:53.815Z,8.7
2023-04-15T17:07:55.816Z,8.7
2023-04-15T17:09:57.791Z,8.7
2023-04-15T17:11:59.776Z,8.6
2023-04-15T17:14:03.284Z,8.6
2023-04-15T17:16:05.317Z,8.7
2023-04-15T17:22:14.274Z,8.6
2023-04-15T17:24:16.246Z,8.6
2023-04-15T17:26:18.230Z,8.6
2023-04-15T17:28:20.231Z,8.5
2023-04-15T17:30:23.560Z,8.5
2023-04-15T17:34:49.968Z,8.5
2023-04-15T17:50:49.843Z,8.4
2023-04-15T17:53:52.681Z,8.4
2023-04-15T17:55:54.674Z,8.4
2023-04-15T17:57:56.679Z,8.3
2023-04-15T18:02:03.757Z,8.2
2023-04-15T18:16:20.670Z,8.1
2023-04-15T18:18:22.634Z,8.2
2023-04-15T18:22:27.409Z,8.2
2023-04-15T18:24:29.398Z,8.2
2023-04-15T18:26:31.383Z,8.2
2023-04-15T18:32:40.365Z,8.2
2023-04-15T18:40:48.284Z,8.2
2023-04-15T18:46:57.277Z,8.2
2023-04-15T18:48:59.227Z,8.2
2023-04-15T18:50:01.748Z,8.2
2023-04-15T18:52:03.757Z,8.1
2023-04-15T18:54:05.707Z,8
2023-04-15T18:56:07.692Z,7.9
2023-04-15T19:00:14.710Z,7.7
2023-04-15T19:06:20.661Z,7.6
2023-04-15T19:08:22.646Z,7.6
2023-04-15T19:12:29.648Z,7.6
2023-04-15T19:16:33.630Z,7.6
2023-04-15T19:18:35.583Z,7.5
2023-04-15T19:20:39.870Z,7.5
2023-04-15T19:24:41.535Z,7.5
2023-04-15T19:28:48.513Z,7.5
2023-04-15T19:30:50.523Z,7.6
2023-04-15T19:32:52.530Z,7.5
2023-04-15T19:34:54.459Z,7.5
2023-04-15T19:36:56.466Z,7.5
2023-04-15T19:38:58.462Z,7.5
2023-04-15T19:41:03.493Z,7.5
2023-04-15T19:43:05.480Z,7.5
2023-04-15T19:45:07.438Z,7.5
2023-04-15T20:03:49.037Z,7.5
2023-04-15T20:05:50.904Z,7.4
2023-04-15T20:07:56.704Z,7.5
2023-04-15T20:09:57.900Z,7.5
2023-04-15T20:12:47.920Z,7.5
2023-04-15T20:14:01.910Z,7.5
2023-04-15T20:16:03.839Z,7.5
2023-04-15T20:18:05.747Z,7.5
2023-04-15T20:20:07.721Z,7.5
2023-04-15T20:22:12.737Z,7.5
2023-04-15T20:24:14.693Z,7.5
2023-04-15T20:26:16.662Z,7.5
2023-04-15T20:28:18.648Z,7.5
2023-04-15T20:30:20.622Z,7.5
2023-04-15T20:32:22.624Z,7.5
2023-04-15T20:34:24.571Z,7.5
2023-04-15T20:36:29.587Z,7.5
2023-04-15T20:38:31.556Z,7.5
2023-04-15T20:40:34.015Z,7.5
2023-04-15T20:41:36.020Z,7.5
2023-04-15T20:53:50.921Z,7.4
2023-04-15T20:55:52.925Z,7.5
2023-04-15T20:57:54.902Z,7.4
2023-04-15T21:01:58.921Z,7.4
2023-04-15T21:12:11.813Z,7.4
2023-04-15T21:14:13.787Z,7.4
2023-04-15T21:16:15.856Z,7.4
2023-04-15T21:22:24.766Z,7.4
2023-04-15T21:34:39.668Z,7.5
2023-04-15T21:36:41.625Z,7.5
2023-04-15T21:37:44.128Z,7.5
2023-04-15T21:39:46.114Z,7.5
2023-04-15T21:41:48.126Z,7.5
2023-04-15T21:43:50.049Z,7.5
2023-04-15T21:46:22.952Z,7.5
2023-04-15T21:48:07.445Z,7.5
2023-04-15T21:49:59.109Z,7.5
2023-04-15T21:52:01.336Z,7.5
2023-04-15T21:54:03.086Z,7.5
2023-04-15T21:56:05.030Z,7.5
2023-04-15T21:58:06.981Z,7.5
2023-04-15T22:00:12.131Z,7.5
2023-04-15T22:02:14.102Z,7.5
2023-04-15T22:04:16.213Z,7.5
2023-04-15T22:06:17.991Z,7.5
2023-04-15T22:14:28.939Z,7.5
2023-04-15T22:18:32.907Z,7.5
2023-04-15T22:22:43.949Z,7.5
2023-04-15T22:26:40.803Z,7.6
2023-04-15T22:30:47.824Z,7.5
2023-04-15T22:32:49.861Z,7.5
2023-04-15T22:33:52.328Z,7.6
2023-04-15T22:35:54.304Z,7.5
2023-04-15T22:39:58.286Z,7.5
2023-04-15T22:42:03.286Z,7.6
2023-04-15T22:44:05.293Z,7.5
2023-04-15T22:46:07.302Z,7.6
2023-04-15T22:52:23.434Z,7.6
2023-04-15T22:56:20.169Z,7.6
2023-04-15T22:58:22.153Z,7.6
2023-04-15T23:00:24.145Z,7.6
2023-04-15T23:02:26.273Z,7.6
2023-04-15T23:04:28.357Z,7.6
2023-04-15T23:06:31.621Z,7.6
2023-04-15T23:08:33.548Z,7.6
2023-04-15T23:10:38.561Z,7.6
2023-04-15T23:14:42.515Z,7.6
2023-04-15T23:22:50.437Z,7.6
2023-04-15T23:26:57.482Z,7.6
2023-04-15T23:28:59.414Z,7.6
2023-04-15T23:31:22.415Z,7.6
2023-04-15T23:35:26.253Z,7.6
2023-04-15T23:39:33.265Z,7.6
2023-04-15T23:43:37.213Z,7.6
2023-04-15T23:55:52.154Z,7.6
2023-04-15T23:57:54.147Z,7.7
2023-04-15T23:59:56.117Z,7.6
